Time;durP1;ratioP1;P1;durP2;ratioP2;P2;SDS_P1;SDS_P2;PMS_P1;PMS_P2;Temp;Humidity;BMP_temperature;BMP_pressure;BME280_temperature;BME280_humidity;BME280_pressure;Samples;Min_cycle;Max_cycle;Signal;HPM_P1;HPM_P2
2022/09/27 00:01:37;;;;;;;5.67;1.00;;;10.80;99.90;;;;;;5015014;28;20022;-83
2022/09/27 00:04:02;;;;;;;7.07;0.60;;;10.80;99.90;;;;;;5015021;28;20026;-83
2022/09/27 00:06:30;;;;;;;6.33;1.00;;;10.80;99.90;;;;;;5015528;28;20477;-83
2022/09/27 00:08:56;;;;;;;6.17;1.00;;;10.80;99.90;;;;;;5015633;28;20022;-80
2022/09/27 00:11:28;;;;;;;6.23;0.83;;;10.80;99.90;;;;;;5014848;28;20033;-81
2022/09/27 00:13:55;;;;;;;8.23;1.17;;;10.80;99.90;;;;;;5014748;28;20025;-82
2022/09/27 00:16:22;;;;;;;6.32;0.90;;;10.80;99.90;;;;;;5014522;28;20026;-83
2022/09/27 00:18:48;;;;;;;7.77;1.20;;;10.80;99.90;;;;;;5014742;28;20025;-82
2022/09/27 00:21:14;;;;;;;9.18;1.23;;;10.80;99.90;;;;;;5014616;28;20379;-81
2022/09/27 00:23:40;;;;;;;8.10;0.95;;;10.70;99.90;;;;;;5014745;28;20022;-82
2022/09/27 00:26:07;;;;;;;7.65;1.65;;;10.70;99.90;;;;;;5014566;28;20034;-80
2022/09/27 00:28:33;;;;;;;8.63;1.50;;;10.70;99.90;;;;;;5014533;28;20474;-83
2022/09/27 00:30:59;;;;;;;8.07;1.30;;;10.70;99.90;;;;;;5015776;28;20037;-83
2022/09/27 00:33:26;;;;;;;5.77;0.87;;;10.70;99.90;;;;;;5031052;28;20040;-82
2022/09/27 00:35:52;;;;;;;5.90;0.97;;;10.70;99.90;;;;;;5014299;28;20029;-79
2022/09/27 00:38:18;;;;;;;7.57;1.00;;;10.70;99.90;;;;;;5014304;28;20018;-82
2022/09/27 00:40:44;;;;;;;7.93;1.23;;;10.60;99.90;;;;;;5014245;28;20113;-82
2022/09/27 00:43:22;;;;;;;6.77;1.20;;;10.70;99.90;;;;;;5014146;28;20022;-81
2022/09/27 00:45:54;;;;;;;4.83;0.70;;;10.70;99.90;;;;;;5028423;28;20049;-80
2022/09/27 00:48:24;;;;;;;6.57;0.70;;;10.70;99.90;;;;;;5033048;28;20467;-81
2022/09/27 00:50:54;;;;;;;3.00;0.40;;;10.60;99.90;;;;;;5033432;28;20018;-83
2022/09/27 00:53:38;;;;;;;2.40;0.37;;;10.60;99.90;;;;;;5033787;28;20026;-82
2022/09/27 00:56:09;;;;;;;2.70;0.50;;;10.60;99.90;;;;;;5033690;28;20128;-83
2022/09/27 00:58:47;;;;;;;4.53;0.60;;;10.60;99.90;;;;;;5033555;28;20026;-82
2022/09/27 01:01:12;;;;;;;9.17;0.83;;;10.50;99.90;;;;;;5033657;28;20116;-81
2022/09/27 01:04:04;;;;;;;2.70;0.60;;;10.50;99.90;;;;;;5017256;28;20108;-83
2022/09/27 01:06:30;;;;;;;2.67;0.53;;;10.50;99.90;;;;;;5033577;28;20060;-83
2022/09/27 01:08:56;;;;;;;8.98;0.80;;;10.50;99.90;;;;;;5017120;28;20108;-83
2022/09/27 01:11:41;;;;;;;4.70;1.00;;;10.50;99.90;;;;;;5033520;28;20044;-84
2022/09/27 01:14:31;;;;;;;2.97;0.60;;;10.50;99.90;;;;;;5033463;28;20029;-78
2022/09/27 01:17:09;;;;;;;3.27;0.60;;;10.50;99.90;;;;;;5033266;28;20044;-80
2022/09/27 01:20:10;;;;;;;5.97;0.70;;;10.50;99.90;;;;;;5034617;28;20100;-80
2022/09/27 01:22:54;;;;;;;3.27;0.83;;;10.40;99.90;;;;;;5034129;28;20037;-79
2022/09/27 01:25:58;;;;;;;3.95;0.82;;;10.50;99.90;;;;;;5033325;28;20028;-82
2022/09/27 01:28:58;;;;;;;3.60;0.60;;;10.40;99.90;;;;;;4993087;28;20496;-80
2022/09/27 01:31:34;;;;;;;6.43;0.73;;;10.40;99.90;;;;;;5034317;28;20014;-83
2022/09/27 01:34:06;;;;;;;6.27;0.80;;;10.40;99.90;;;;;;5033099;28;20104;-84
2022/09/27 01:36:40;;;;;;;4.80;0.77;;;10.40;99.90;;;;;;5033156;28;20465;-84
2022/09/27 01:39:37;;;;;;;4.40;0.67;;;10.40;99.90;;;;;;5034161;28;20017;-79
2022/09/27 01:42:14;;;;;;;5.97;0.80;;;10.30;99.90;;;;;;5032853;28;20018;-81
2022/09/27 01:45:10;;;;;;;4.87;0.80;;;10.30;99.90;;;;;;5032847;28;20025;-83
2022/09/27 01:47:45;;;;;;;3.40;0.60;;;10.30;99.90;;;;;;5026181;28;20095;-79
2022/09/27 01:50:30;;;;;;;6.87;0.53;;;10.30;99.90;;;;;;5032906;28;20095;-83
2022/09/27 01:53:02;;;;;;;4.80;0.57;;;10.30;99.90;;;;;;5032829;28;20028;-84
2022/09/27 01:55:33;;;;;;;4.87;0.70;;;10.20;99.90;;;;;;5032585;28;20049;-81
2022/09/27 01:58:11;;;;;;;8.07;0.60;;;10.20;99.90;;;;;;5032312;28;20021;-83
2022/09/27 02:00:38;;;;;;;3.07;0.70;;;10.20;99.90;;;;;;5032512;28;20116;-83
2022/09/27 02:03:28;;;;;;;6.47;0.93;;;10.20;99.90;;;;;;5016093;28;20021;-80
2022/09/27 02:06:00;;;;;;;6.07;0.80;;;10.20;99.90;;;;;;5033632;28;20026;-82
2022/09/27 02:08:25;;;;;;;3.67;0.50;;;10.20;99.90;;;;;;5033706;28;20017;-83
2022/09/27 02:10:55;;;;;;;7.83;0.57;;;10.20;99.90;;;;;;5032444;28;20392;-82
2022/09/27 02:13:22;;;;;;;9.33;0.80;;;10.10;99.90;;;;;;5032467;28;20025;-83
2022/09/27 02:16:01;;;;;;;3.03;0.80;;;10.20;99.90;;;;;;5032328;28;20025;-82
2022/09/27 02:19:06;;;;;;;8.73;0.70;;;10.10;99.90;;;;;;5032421;28;20055;-83
2022/09/27 02:21:54;;;;;;;7.85;0.82;;;10.10;99.90;;;;;;5002507;28;20124;-80
2022/09/27 02:24:29;;;;;;;5.60;1.13;;;10.10;99.90;;;;;;5033894;28;20029;-81
2022/09/27 02:27:22;;;;;;;3.97;0.73;;;10.10;99.90;;;;;;5033354;28;20017;-82
2022/09/27 02:29:57;;;;;;;4.90;0.40;;;10.00;99.90;;;;;;5048934;28;20018;-82
2022/09/27 02:32:23;;;;;;;4.90;0.43;;;10.00;99.90;;;;;;5032177;28;20021;-82
2022/09/27 02:34:51;;;;;;;4.17;0.50;;;10.00;99.90;;;;;;4999543;28;20036;-85
2022/09/27 02:37:17;;;;;;;5.07;0.40;;;10.00;99.90;;;;;;5032179;28;20025;-83
2022/09/27 02:39:42;;;;;;;4.73;0.40;;;9.80;99.90;;;;;;5032162;28;20049;-82
2022/09/27 02:42:08;;;;;;;2.23;0.53;;;9.90;99.90;;;;;;5015857;28;20099;-82
2022/09/27 02:44:35;;;;;;;3.70;0.70;;;9.90;99.90;;;;;;5015471;28;20101;-81
2022/09/27 02:47:23;;;;;;;3.00;0.40;;;9.90;99.90;;;;;;5015367;28;20099;-82
2022/09/27 02:50:07;;;;;;;3.80;0.60;;;9.80;99.90;;;;;;5035024;28;20030;-82
2022/09/27 02:52:58;;;;;;;4.65;0.50;;;9.80;99.90;;;;;;5028648;28;20026;-82
2022/09/27 02:55:38;;;;;;;2.07;0.40;;;9.80;99.90;;;;;;5028472;28;20141;-82
2022/09/27 02:58:07;;;;;;;4.43;0.60;;;9.80;99.90;;;;;;5028451;28;20033;-84
2022/09/27 03:00:52;;;;;;;3.47;0.60;;;9.80;99.90;;;;;;5028521;28;20044;-82
2022/09/27 03:03:32;;;;;;;8.83;1.17;;;9.70;99.90;;;;;;5028528;28;20048;-81
2022/09/27 03:06:06;;;;;;;3.83;0.60;;;9.70;99.90;;;;;;5028572;28;20065;-82
2022/09/27 03:08:32;;;;;;;6.57;0.97;;;9.70;99.90;;;;;;5028420;28;20022;-81
2022/09/27 03:10:58;;;;;;;6.13;0.53;;;9.60;99.90;;;;;;5014489;28;20548;-82
2022/09/27 03:13:24;;;;;;;6.03;0.60;;;9.70;99.90;;;;;;5015915;28;20087;-81
2022/09/27 03:15:49;;;;;;;7.43;0.90;;;9.60;99.90;;;;;;5015701;28;20083;-81
2022/09/27 03:18:15;;;;;;;4.70;0.60;;;9.60;99.90;;;;;;5015799;28;20030;-81
2022/09/27 03:20:40;;;;;;;4.80;1.20;;;9.50;99.90;;;;;;5015786;28;20057;-81
2022/09/27 03:23:06;;;;;;;11.77;1.23;;;9.60;99.90;;;;;;5032048;28;20484;-81
2022/09/27 03:25:32;;;;;;;4.13;0.67;;;9.50;99.90;;;;;;5015720;28;20106;-82
2022/09/27 03:27:57;;;;;;;6.37;0.47;;;9.50;99.90;;;;;;5017887;28;20037;-81
2022/09/27 03:30:23;;;;;;;5.30;0.63;;;9.50;99.90;;;;;;5035151;28;20037;-82
2022/09/27 03:32:48;;;;;;;5.43;0.90;;;9.50;99.90;;;;;;5050652;28;20347;-81
2022/09/27 03:35:14;;;;;;;5.47;1.67;;;9.50;99.90;;;;;;5034426;28;20496;-81
2022/09/27 03:37:40;;;;;;;8.80;0.70;;;9.50;99.90;;;;;;5034909;28;20037;-81
2022/09/27 03:40:07;;;;;;;9.23;1.00;;;9.50;99.90;;;;;;5051758;28;20038;-81
2022/09/27 03:42:33;;;;;;;10.23;1.00;;;9.50;99.90;;;;;;5051926;28;20025;-81
2022/09/27 03:44:59;;;;;;;3.03;0.60;;;9.50;99.90;;;;;;5035099;28;20124;-81
2022/09/27 03:47:25;;;;;;;7.23;0.70;;;9.50;99.90;;;;;;5034928;28;20060;-81
2022/09/27 03:49:50;;;;;;;6.13;0.70;;;9.50;99.90;;;;;;5051570;28;20478;-81
2022/09/27 03:52:17;;;;;;;5.70;0.60;;;9.50;99.90;;;;;;5035026;28;20034;-81
2022/09/27 03:54:43;;;;;;;3.87;0.50;;;9.40;99.90;;;;;;5051155;28;20045;-81
2022/09/27 03:57:09;;;;;;;4.57;0.70;;;9.40;99.90;;;;;;5034800;28;20060;-81
2022/09/27 03:59:35;;;;;;;5.83;0.80;;;9.40;99.90;;;;;;5034715;28;20032;-81
2022/09/27 04:02:04;;;;;;;7.97;0.60;;;9.40;99.90;;;;;;5034731;28;20030;-81
2022/09/27 04:04:32;;;;;;;7.63;1.03;;;9.40;99.90;;;;;;5051249;28;20048;-82
2022/09/27 04:06:58;;;;;;;8.07;1.20;;;9.50;99.90;;;;;;5051147;28;20389;-80
2022/09/27 04:09:24;;;;;;;9.50;1.10;;;9.40;99.90;;;;;;5034746;28;20029;-81
2022/09/27 04:11:49;;;;;;;10.90;1.07;;;9.50;99.90;;;;;;5034676;28;20047;-81
2022/09/27 04:14:15;;;;;;;11.97;1.10;;;9.50;99.90;;;;;;5034586;28;20386;-81
2022/09/27 04:16:41;;;;;;;8.30;1.97;;;9.40;99.90;;;;;;5034479;28;20481;-81
2022/09/27 04:19:07;;;;;;;5.30;0.90;;;9.40;99.90;;;;;;5034431;28;20455;-80
2022/09/27 04:21:34;;;;;;;4.87;0.83;;;9.50;99.90;;;;;;5033682;28;20030;-80
2022/09/27 04:23:59;;;;;;;6.73;0.97;;;9.50;99.90;;;;;;5034619;28;20026;-81
2022/09/27 04:26:25;;;;;;;9.50;1.23;;;9.50;99.90;;;;;;5050765;28;20516;-80
2022/09/27 04:28:51;;;;;;;5.40;0.80;;;9.50;99.90;;;;;;5050781;28;20079;-80
2022/09/27 04:31:18;;;;;;;6.93;1.13;;;9.50;99.90;;;;;;5034187;28;20029;-80
2022/09/27 04:33:44;;;;;;;9.70;1.93;;;9.50;99.90;;;;;;5034128;28;20034;-80
2022/09/27 04:36:26;;;;;;;11.53;1.30;;;9.60;99.90;;;;;;5033903;28;20056;-81
2022/09/27 04:38:57;;;;;;;9.27;1.00;;;9.60;99.90;;;;;;5034960;28;20386;-80
2022/09/27 04:41:24;;;;;;;8.33;1.90;;;9.60;99.90;;;;;;5050500;28;20071;-80
2022/09/27 04:43:51;;;;;;;7.97;1.37;;;9.50;99.90;;;;;;5050494;28;20021;-81
2022/09/27 04:46:17;;;;;;;7.63;1.00;;;9.60;99.90;;;;;;5050461;28;20048;-81
2022/09/27 04:48:42;;;;;;;13.93;1.60;;;9.60;99.90;;;;;;5033756;28;20160;-81
2022/09/27 04:51:09;;;;;;;9.00;0.93;;;9.60;99.90;;;;;;5035646;28;20458;-80
2022/09/27 04:53:35;;;;;;;10.13;1.27;;;9.60;99.90;;;;;;5050343;28;20393;-80
2022/09/27 04:56:04;;;;;;;9.60;1.20;;;9.60;99.90;;;;;;5051826;28;20075;-81
2022/09/27 04:58:32;;;;;;;7.57;0.80;;;9.50;99.90;;;;;;5053607;28;20078;-81
2022/09/27 05:01:01;;;;;;;8.73;1.37;;;9.50;99.90;;;;;;5037010;28;20052;-80
2022/09/27 05:03:27;;;;;;;10.57;1.07;;;9.50;99.90;;;;;;5037057;28;20500;-81
2022/09/27 05:05:53;;;;;;;8.50;0.97;;;9.50;99.90;;;;;;5053357;28;20052;-80
2022/09/27 05:08:19;;;;;;;12.43;1.50;;;9.50;99.90;;;;;;5053377;28;20028;-81
2022/09/27 05:10:46;;;;;;;6.73;1.00;;;9.50;99.90;;;;;;5036860;28;20029;-80
2022/09/27 05:13:12;;;;;;;7.93;1.53;;;9.50;99.90;;;;;;5017548;28;20040;-80
2022/09/27 05:15:38;;;;;;;12.87;1.60;;;9.50;99.90;;;;;;5006373;28;20466;-78
2022/09/27 05:18:04;;;;;;;7.97;0.87;;;9.50;99.90;;;;;;5020555;28;20365;-83
2022/09/27 05:20:29;;;;;;;8.90;0.83;;;9.40;99.90;;;;;;5053635;28;20025;-83
2022/09/27 05:22:55;;;;;;;6.03;0.63;;;9.40;99.90;;;;;;5026678;28;20465;-78
2022/09/27 05:25:21;;;;;;;7.43;1.00;;;9.40;99.90;;;;;;5020464;28;20517;-82
2022/09/27 05:27:48;;;;;;;6.17;0.60;;;9.40;99.90;;;;;;5020382;28;20107;-79
2022/09/27 05:30:14;;;;;;;3.60;0.53;;;9.40;99.90;;;;;;5020204;28;20037;-79
2022/09/27 05:32:42;;;;;;;8.27;1.00;;;9.40;99.90;;;;;;5003513;28;20040;-80
2022/09/27 05:35:09;;;;;;;7.17;0.70;;;9.40;99.90;;;;;;5036157;28;20028;-80
2022/09/27 05:37:35;;;;;;;5.33;0.60;;;9.40;99.90;;;;;;5020372;28;20473;-78
2022/09/27 05:40:01;;;;;;;3.50;0.93;;;9.40;99.90;;;;;;5037262;28;20090;-83
2022/09/27 05:42:26;;;;;;;6.03;0.87;;;9.30;99.90;;;;;;5019955;28;20404;-82
2022/09/27 05:44:52;;;;;;;4.97;0.80;;;9.30;99.90;;;;;;5020017;28;20029;-82
2022/09/27 05:47:18;;;;;;;4.20;0.77;;;9.30;99.90;;;;;;5036408;28;20029;-81
2022/09/27 05:49:43;;;;;;;9.37;0.97;;;9.40;99.90;;;;;;5054124;28;20060;-83
2022/09/27 05:52:09;;;;;;;5.60;0.60;;;9.30;99.90;;;;;;5019695;28;20032;-82
2022/09/27 05:54:35;;;;;;;6.97;0.60;;;9.30;99.90;;;;;;5019390;28;20110;-82
2022/09/27 05:57:01;;;;;;;5.07;0.83;;;9.30;99.90;;;;;;5019421;28;20025;-78
2022/09/27 05:59:27;;;;;;;9.80;0.97;;;9.30;99.90;;;;;;5035908;28;20074;-79
2022/09/27 06:01:53;;;;;;;4.07;0.57;;;9.30;99.90;;;;;;5019548;28;20027;-83
2022/09/27 06:04:20;;;;;;;4.87;0.50;;;9.30;99.90;;;;;;5036038;28;21140;-84
2022/09/27 06:06:46;;;;;;;7.03;0.97;;;9.30;99.90;;;;;;5019395;28;20025;-83
2022/09/27 06:09:14;;;;;;;3.30;0.50;;;9.30;99.90;;;;;;5036227;28;20477;-82
2022/09/27 06:11:40;;;;;;;3.10;0.60;;;9.40;99.90;;;;;;5036049;28;20025;-83
2022/09/27 06:14:06;;;;;;;2.90;0.67;;;9.30;99.90;;;;;;5019300;28;20082;-83
2022/09/27 06:16:32;;;;;;;3.73;0.53;;;9.40;99.90;;;;;;5019074;28;20111;-79
2022/09/27 06:18:57;;;;;;;6.60;0.80;;;9.50;99.90;;;;;;5019137;28;20421;-79
2022/09/27 06:21:23;;;;;;;6.60;0.70;;;9.40;99.90;;;;;;5019113;28;20382;-80
2022/09/27 06:23:49;;;;;;;3.03;1.20;;;9.40;99.90;;;;;;5018807;28;20060;-79
2022/09/27 06:26:16;;;;;;;6.00;0.70;;;9.50;99.90;;;;;;5018853;28;20037;-80
2022/09/27 06:28:41;;;;;;;6.20;0.90;;;9.50;99.90;;;;;;5035745;28;20573;-82
2022/09/27 06:31:08;;;;;;;3.33;0.50;;;9.50;99.90;;;;;;5050897;28;20056;-79
2022/09/27 06:33:34;;;;;;;1.90;0.30;;;9.60;99.90;;;;;;5035809;28;20029;-80
2022/09/27 06:36:05;;;;;;;4.00;0.60;;;9.50;99.90;;;;;;5036135;28;20025;-81
2022/09/27 06:38:31;;;;;;;4.27;0.60;;;9.60;99.90;;;;;;5054820;28;20021;-80
2022/09/27 06:41:01;;;;;;;5.50;0.70;;;9.60;99.90;;;;;;5019643;28;20026;-80
2022/09/27 06:43:26;;;;;;;5.77;0.77;;;9.50;99.90;;;;;;5019141;28;20038;-83
2022/09/27 06:45:53;;;;;;;2.10;0.60;;;9.50;99.90;;;;;;5037609;28;20037;-81
2022/09/27 06:48:19;;;;;;;3.27;0.80;;;9.50;99.90;;;;;;5039508;28;20485;-79
2022/09/27 06:50:46;;;;;;;2.00;0.60;;;9.60;99.90;;;;;;5039403;28;20029;-80
2022/09/27 06:53:14;;;;;;;3.73;0.60;;;9.50;99.90;;;;;;5022902;28;20025;-81
2022/09/27 06:55:40;;;;;;;1.93;0.50;;;9.70;99.90;;;;;;5038935;28;20037;-81
2022/09/27 07:00:53;;;;;;;3.83;0.80;;;9.80;99.90;;;;;;5041851;28;20076;-80
2022/09/27 07:03:30;;;;;;;3.50;0.80;;;9.90;99.90;;;;;;5034754;28;20018;-80
2022/09/27 07:06:00;;;;;;;4.63;0.50;;;10.00;99.90;;;;;;5035533;28;20030;-82
2022/09/27 07:08:27;;;;;;;4.60;0.70;;;10.10;99.90;;;;;;5021698;28;20044;-82
2022/09/27 07:10:55;;;;;;;2.33;0.60;;;10.20;99.90;;;;;;5039312;28;20040;-81
2022/09/27 07:13:21;;;;;;;4.82;0.68;;;10.20;99.90;;;;;;5039378;28;20124;-82
2022/09/27 07:15:47;;;;;;;4.20;0.63;;;10.30;99.90;;;;;;5056654;28;20056;-83
2022/09/27 07:18:14;;;;;;;3.73;0.60;;;10.30;99.90;;;;;;5038850;28;20079;-82
2022/09/27 07:20:39;;;;;;;2.73;0.60;;;10.30;99.90;;;;;;5022288;28;20067;-82
2022/09/27 07:23:07;;;;;;;6.17;1.00;;;10.30;99.90;;;;;;5022083;28;20432;-81
2022/09/27 07:25:33;;;;;;;2.73;0.90;;;10.20;99.90;;;;;;5022042;28;20076;-82
2022/09/27 07:28:07;;;;;;;7.57;1.43;;;10.20;99.90;;;;;;5038664;28;20488;-82
2022/09/27 07:30:33;;;;;;;3.60;0.98;;;10.20;99.90;;;;;;5056512;28;20033;-82
2022/09/27 07:33:01;;;;;;;2.50;0.60;;;10.20;99.90;;;;;;5056568;28;20083;-80
2022/09/27 07:35:27;;;;;;;4.70;0.93;;;10.30;99.90;;;;;;5038820;28;20035;-79
2022/09/27 07:37:53;;;;;;;6.03;0.80;;;10.30;99.90;;;;;;5022228;28;20025;-78
2022/09/27 07:40:19;;;;;;;12.30;1.17;;;10.30;99.90;;;;;;5022016;28;20612;-79
2022/09/27 07:42:45;;;;;;;6.13;1.00;;;10.40;99.90;;;;;;5038356;28;20051;-77
2022/09/27 07:45:11;;;;;;;3.03;0.67;;;10.40;99.90;;;;;;5021955;28;20496;-82
2022/09/27 07:47:40;;;;;;;3.67;0.70;;;10.50;99.90;;;;;;5020584;28;20025;-81
2022/09/27 07:50:11;;;;;;;1.67;0.50;;;10.50;99.90;;;;;;5049185;28;20100;-82
2022/09/27 07:52:46;;;;;;;5.07;0.80;;;10.60;99.90;;;;;;5054793;28;20017;-83
2022/09/27 07:55:13;;;;;;;6.97;0.80;;;10.70;99.90;;;;;;5054264;28;20037;-82
2022/09/27 07:57:40;;;;;;;4.57;0.63;;;10.70;99.90;;;;;;5053585;28;20024;-84
2022/09/27 08:00:09;;;;;;;2.50;0.50;;;10.70;99.90;;;;;;5021891;28;20025;-82
2022/09/27 08:02:35;;;;;;;4.30;0.50;;;10.70;99.90;;;;;;5054718;28;20013;-82
2022/09/27 08:05:02;;;;;;;6.47;0.40;;;10.70;99.90;;;;;;5054574;28;20143;-81
2022/09/27 08:07:28;;;;;;;3.17;0.50;;;10.70;99.90;;;;;;5055708;28;20025;-81
2022/09/27 08:09:54;;;;;;;5.97;0.67;;;10.70;99.90;;;;;;5021539;28;20033;-82
2022/09/27 08:12:21;;;;;;;2.70;1.10;;;10.70;99.90;;;;;;5037827;28;20017;-82
2022/09/27 08:14:47;;;;;;;2.47;0.50;;;10.80;99.90;;;;;;5038057;28;20029;-81
2022/09/27 08:17:13;;;;;;;4.43;0.93;;;10.90;99.90;;;;;;5021189;28;20020;-81
2022/09/27 08:19:39;;;;;;;4.72;0.73;;;11.00;99.90;;;;;;5021226;28;20370;-81
2022/09/27 08:22:06;;;;;;;3.72;0.75;;;11.00;99.90;;;;;;5021193;28;20017;-81
2022/09/27 08:24:32;;;;;;;4.18;0.75;;;11.00;99.90;;;;;;5037512;28;20013;-83
2022/09/27 08:26:58;;;;;;;5.18;0.80;;;11.00;99.90;;;;;;5037672;28;20067;-83
2022/09/27 08:29:24;;;;;;;5.05;0.90;;;11.10;99.90;;;;;;5004998;28;20120;-81
2022/09/27 08:31:50;;;;;;;3.72;1.00;;;11.00;99.90;;;;;;5020257;28;20112;-80
2022/09/27 08:34:16;;;;;;;5.93;1.10;;;11.10;99.90;;;;;;5043367;28;20079;-81
2022/09/27 08:36:42;;;;;;;4.45;0.93;;;11.00;99.90;;;;;;5017830;28;20041;-78
2022/09/27 08:39:08;;;;;;;3.53;1.50;;;11.10;99.90;;;;;;5001441;28;20124;-82
2022/09/27 08:41:38;;;;;;;6.65;1.52;;;11.00;99.90;;;;;;4985292;28;20067;-83
2022/09/27 08:44:31;;;;;;;5.80;1.43;;;11.00;99.90;;;;;;5017627;28;20025;-81
2022/09/27 08:46:58;;;;;;;5.53;1.40;;;11.00;99.90;;;;;;5035393;28;20104;-79
2022/09/27 08:49:56;;;;;;;6.03;1.50;;;11.00;99.90;;;;;;5017552;28;20445;-84
2022/09/27 08:52:29;;;;;;;3.80;1.20;;;11.00;99.90;;;;;;5017981;28;20036;-81
2022/09/27 08:55:01;;;;;;;3.47;1.03;;;11.10;99.90;;;;;;5017011;28;20046;-82
2022/09/27 08:57:27;;;;;;;3.47;1.30;;;11.20;99.90;;;;;;5017210;28;20280;-81
2022/09/27 09:00:10;;;;;;;4.70;1.50;;;11.30;99.90;;;;;;5000896;28;20071;-80
2022/09/27 09:02:36;;;;;;;3.95;1.17;;;11.30;99.90;;;;;;5017431;28;20052;-82
2022/09/27 09:05:08;;;;;;;4.20;1.52;;;11.40;99.90;;;;;;5000758;28;20034;-82
2022/09/27 09:07:50;;;;;;;3.97;1.90;;;11.40;99.90;;;;;;5033163;28;20033;-82
2022/09/27 09:13:42;;;;;;;3.45;1.00;;;11.40;99.90;;;;;;5035529;28;20036;-78
2022/09/27 09:16:27;;;;;;;4.13;0.90;;;11.40;99.90;;;;;;5016848;28;20033;-80
2022/09/27 09:19:30;;;;;;;2.22;0.70;;;11.30;99.90;;;;;;5034562;28;20025;-81
2022/09/27 09:22:17;;;;;;;2.15;0.77;;;11.40;99.90;;;;;;5016936;28;20061;-80
2022/09/27 09:24:53;;;;;;;6.57;1.10;;;11.40;99.90;;;;;;5016910;28;20028;-79
2022/09/27 09:27:38;;;;;;;3.17;1.27;;;11.40;99.90;;;;;;5048603;28;20470;-82
2022/09/27 09:30:13;;;;;;;;;;;11.40;99.90;;;;;;5037093;28;20079;-82
2022/09/27 09:33:00;;;;;;;3.45;1.23;;;11.50;99.90;;;;;;5036875;28;19905;-79
2022/09/27 09:35:49;;;;;;;4.07;1.48;;;11.50;99.90;;;;;;5054302;28;20477;-78
2022/09/27 09:38:22;;;;;;;4.60;1.30;;;11.50;99.90;;;;;;5036713;28;20027;-78
2022/09/27 09:40:54;;;;;;;3.50;1.13;;;11.50;99.90;;;;;;5036288;28;20116;-82
2022/09/27 09:43:27;;;;;;;5.30;1.90;;;11.50;99.90;;;;;;5036312;28;20024;-78
2022/09/27 09:46:08;;;;;;;3.28;1.20;;;11.40;99.90;;;;;;5036320;28;20021;-82
2022/09/27 09:48:45;;;;;;;3.47;1.20;;;11.40;99.90;;;;;;5054068;28;20027;-80
2022/09/27 09:51:21;;;;;;;6.45;1.20;;;11.30;99.90;;;;;;5036476;28;20029;-82
2022/09/27 09:54:01;;;;;;;5.07;0.88;;;11.30;99.90;;;;;;5054294;28;20040;-79
2022/09/27 09:56:32;;;;;;;4.13;0.60;;;11.30;99.90;;;;;;5036205;28;20095;-79
2022/09/27 09:59:03;;;;;;;3.97;0.98;;;11.30;99.90;;;;;;5036324;28;20025;-83
2022/09/27 10:01:44;;;;;;;4.28;0.40;;;11.30;99.90;;;;;;5035844;28;20025;-82
2022/09/27 10:04:26;;;;;;;4.80;0.55;;;11.30;99.90;;;;;;5053814;28;20029;-83
2022/09/27 10:06:53;;;;;;;3.75;0.60;;;11.40;99.90;;;;;;5019366;28;20071;-81
2022/09/27 10:09:27;;;;;;;4.88;1.00;;;11.40;99.90;;;;;;5019617;28;20036;-83
2022/09/27 10:11:52;;;;;;;2.67;0.50;;;11.40;99.90;;;;;;5019765;28;20503;-78
2022/09/27 10:14:21;;;;;;;2.50;0.47;;;11.50;99.90;;;;;;5003273;28;20025;-78
2022/09/27 10:16:57;;;;;;;4.20;0.40;;;11.40;99.90;;;;;;5019400;28;20854;-85
2022/09/27 10:19:29;;;;;;;2.92;0.73;;;11.40;99.90;;;;;;5034909;28;20021;-80
2022/09/27 10:22:09;;;;;;;2.65;0.30;;;11.20;99.90;;;;;;5035703;28;20112;-84
2022/09/27 10:25:01;;;;;;;3.90;0.60;;;11.30;99.90;;;;;;5035613;28;20021;-79
2022/09/27 10:27:36;;;;;;;3.55;0.40;;;11.20;99.90;;;;;;5039855;28;20033;-79
2022/09/27 10:30:03;;;;;;;2.78;0.50;;;11.20;99.90;;;;;;5035632;28;20021;-80
2022/09/27 10:32:35;;;;;;;2.22;0.45;;;11.10;99.90;;;;;;5053343;28;20032;-79
2022/09/27 10:35:29;;;;;;;3.63;0.50;;;11.10;99.90;;;;;;5035326;28;20029;-79
2022/09/27 10:38:20;;;;;;;2.53;0.30;;;11.10;99.90;;;;;;5035424;28;20448;-79
2022/09/27 10:40:47;;;;;;;2.47;0.40;;;11.10;99.90;;;;;;5053369;28;20350;-79
2022/09/27 10:43:34;;;;;;;4.35;0.40;;;11.10;99.90;;;;;;5053385;28;20033;-78
2022/09/27 10:46:07;;;;;;;1.95;0.20;;;11.10;99.90;;;;;;5018978;28;20428;-79
2022/09/27 10:48:34;;;;;;;2.20;0.30;;;11.20;99.90;;;;;;5035333;28;20113;-80
2022/09/27 10:51:03;;;;;;;2.05;0.20;;;11.20;99.90;;;;;;5019385;28;20112;-81
2022/09/27 10:53:31;;;;;;;2.15;0.22;;;11.30;99.90;;;;;;5053354;28;20024;-78
2022/09/27 10:55:58;;;;;;;5.25;0.40;;;11.30;99.90;;;;;;5035141;28;20049;-81
2022/09/27 10:58:26;;;;;;;3.72;0.45;;;11.40;99.90;;;;;;5034332;28;20052;-79
2022/09/27 11:01:13;;;;;;;1.38;0.30;;;11.50;99.90;;;;;;5053222;28;20028;-78
2022/09/27 11:03:49;;;;;;;2.42;0.40;;;11.40;99.90;;;;;;5019149;28;20017;-80
2022/09/27 11:06:22;;;;;;;5.22;0.50;;;11.50;99.90;;;;;;5035245;28;20090;-80
2022/09/27 11:08:51;;;;;;;2.17;0.40;;;11.50;99.90;;;;;;5035265;28;20366;-80
2022/09/27 11:11:28;;;;;;;1.38;0.30;;;11.60;99.90;;;;;;5019547;28;20029;-81
2022/09/27 11:14:03;;;;;;;2.38;0.25;;;11.60;99.90;;;;;;5052969;28;20021;-79
2022/09/27 11:17:07;;;;;;;2.25;0.40;;;11.80;99.90;;;;;;5035069;28;20025;-83
2022/09/27 11:19:51;;;;;;;3.50;0.35;;;11.90;99.90;;;;;;5035440;28;20131;-80
2022/09/27 11:22:23;;;;;;;1.48;0.30;;;12.00;99.90;;;;;;5035205;28;20017;-80
2022/09/27 11:25:04;;;;;;;1.80;0.20;;;12.00;99.60;;;;;;5035430;28;20076;-79
2022/09/27 11:27:48;;;;;;;2.85;0.30;;;12.10;99.30;;;;;;5035155;28;20032;-80
2022/09/27 11:30:15;;;;;;;;;;;12.20;99.30;;;;;;5035653;28;20033;-80
2022/09/27 11:33:15;;;;;;;2.03;0.47;;;12.30;99.00;;;;;;5038658;28;19970;-83
2022/09/27 11:35:47;;;;;;;2.80;0.30;;;12.50;99.50;;;;;;5038737;28;20028;-77
2022/09/27 11:38:17;;;;;;;2.30;0.30;;;12.70;99.10;;;;;;5038693;28;20021;-81
2022/09/27 11:41:12;;;;;;;3.45;0.30;;;12.90;98.80;;;;;;5039158;28;20119;-78
2022/09/27 11:43:41;;;;;;;4.53;0.40;;;13.20;98.20;;;;;;5056380;28;20075;-80
2022/09/27 11:46:30;;;;;;;2.85;0.25;;;13.40;97.50;;;;;;5056350;28;20033;-78
2022/09/27 11:49:33;;;;;;;4.32;0.30;;;13.50;96.50;;;;;;5038607;28;20028;-80
2022/09/27 11:52:18;;;;;;;1.77;0.30;;;13.60;96.20;;;;;;5038769;28;20060;-83
2022/09/27 11:55:14;;;;;;;3.10;0.30;;;13.60;95.30;;;;;;5038145;28;20517;-82
2022/09/27 11:57:51;;;;;;;0.98;0.20;;;13.50;95.00;;;;;;5038430;28;20021;-83
2022/09/27 12:00:25;;;;;;;4.28;0.30;;;13.40;94.60;;;;;;5038500;28;20021;-82
2022/09/27 12:03:05;;;;;;;1.95;0.20;;;13.20;93.80;;;;;;5038255;28;20044;-83
2022/09/27 12:05:46;;;;;;;2.35;0.30;;;13.20;93.80;;;;;;5056328;28;20052;-82
2022/09/27 12:08:46;;;;;;;2.72;0.30;;;13.10;93.90;;;;;;5038022;28;20029;-84
2022/09/27 12:11:34;;;;;;;4.32;0.32;;;13.00;94.40;;;;;;5037818;28;20060;-78
2022/09/27 12:14:10;;;;;;;1.35;0.10;;;12.90;93.70;;;;;;5044593;28;20035;-80
2022/09/27 12:16:38;;;;;;;1.00;0.20;;;12.80;94.30;;;;;;5054872;28;20033;-82
2022/09/27 12:19:14;;;;;;;1.25;0.25;;;13.00;95.00;;;;;;5037946;28;20083;-79
2022/09/27 12:21:41;;;;;;;0.82;0.20;;;13.20;94.20;;;;;;5049306;28;20021;-78
2022/09/27 12:24:20;;;;;;;3.05;0.30;;;13.20;93.70;;;;;;5037845;28;20075;-83
2022/09/27 12:26:52;;;;;;;1.63;0.63;;;13.30;93.60;;;;;;5037374;28;20370;-83
2022/09/27 12:29:24;;;;;;;0.80;0.13;;;13.50;93.40;;;;;;5046035;28;20025;-82
2022/09/27 12:32:24;;;;;;;0.95;0.20;;;13.30;93.30;;;;;;5037586;28;20029;-79
2022/09/27 12:35:01;;;;;;;3.13;0.20;;;13.40;92.30;;;;;;5053035;28;20056;-82
2022/09/27 12:37:41;;;;;;;0.88;0.10;;;13.10;92.20;;;;;;5037866;28;20021;-83
2022/09/27 12:40:28;;;;;;;1.10;0.10;;;12.90;92.50;;;;;;5037425;28;20465;-82
2022/09/27 12:43:07;;;;;;;1.50;0.20;;;12.80;92.60;;;;;;5047662;28;20010;-82
2022/09/27 12:46:01;;;;;;;1.85;0.20;;;12.70;93.10;;;;;;5036943;28;20024;-79
2022/09/27 12:48:48;;;;;;;2.35;0.30;;;12.60;93.40;;;;;;5036311;28;20096;-80
2022/09/27 12:51:20;;;;;;;1.20;0.25;;;12.50;93.60;;;;;;5036969;28;20032;-78
2022/09/27 12:54:36;;;;;;;1.65;0.28;;;12.50;93.90;;;;;;5037097;28;20025;-81
2022/09/27 12:57:40;;;;;;;1.55;0.30;;;12.50;93.90;;;;;;4980171;28;20104;-78
2022/09/27 13:00:09;;;;;;;1.45;0.28;;;12.40;93.70;;;;;;5017400;28;20032;-78
2022/09/27 13:03:04;;;;;;;0.93;0.17;;;12.30;93.90;;;;;;5034617;28;20029;-76
2022/09/27 13:05:50;;;;;;;0.85;0.20;;;12.20;93.90;;;;;;4948171;28;20063;-77
2022/09/27 13:08:38;;;;;;;0.47;0.10;;;12.10;94.10;;;;;;5033669;28;20028;-82
2022/09/27 13:11:40;;;;;;;2.00;0.30;;;12.10;94.40;;;;;;5033884;28;20442;-82
2022/09/27 13:14:14;;;;;;;1.02;0.10;;;12.00;94.60;;;;;;5036000;28;20489;-83
2022/09/27 13:16:45;;;;;;;1.48;0.20;;;12.00;94.80;;;;;;5001821;28;20034;-78
2022/09/27 13:19:36;;;;;;;1.27;0.30;;;12.00;94.90;;;;;;5037627;28;20034;-79
2022/09/27 13:22:05;;;;;;;3.05;0.60;;;11.90;94.60;;;;;;5036633;28;20025;-79
2022/09/27 13:24:39;;;;;;;4.65;0.35;;;11.90;94.70;;;;;;5054623;28;20021;-80
2022/09/27 13:27:27;;;;;;;1.00;0.20;;;11.80;94.60;;;;;;5036386;28;20397;-82